createdAt,value
2023-02-19T00:01:22.901Z,99506.28
2023-02-19T00:03:58.297Z,99506.63
2023-02-19T00:06:26.859Z,99529.97
2023-02-19T00:08:53.893Z,99506.63
2023-02-19T00:11:23.111Z,99506.56
2023-02-19T00:13:51.944Z,99491.94
2023-02-19T00:16:21.688Z,99521.16
2023-02-19T00:18:48.556Z,99521.06
2023-02-19T00:21:18.079Z,99519.81
2023-02-19T00:23:52.225Z,99525.31
2023-02-19T00:26:19.378Z,99523.69
2023-02-19T00:28:47.649Z,99520.06
2023-02-19T00:31:23.515Z,99510.94
2023-02-19T00:33:55.867Z,99527.44
2023-02-19T00:36:23.383Z,99522.28
2023-02-19T00:38:50.235Z,99524.56
2023-02-19T00:41:19.617Z,99522.94
2023-02-19T00:43:50.385Z,99527.19
2023-02-19T00:46:21.222Z,99544.09
2023-02-19T00:48:48.157Z,99528.63
2023-02-19T00:51:15.608Z,99554.63
2023-02-19T00:53:43.176Z,99553.78
2023-02-19T00:56:10.665Z,99543.47
2023-02-19T00:58:37.700Z,99542.66
2023-02-19T01:01:06.492Z,99540.97
2023-02-19T01:03:37.167Z,99551.19
2023-02-19T01:06:05.127Z,99530.56
2023-02-19T01:08:32.296Z,99532.84
2023-02-19T01:10:59.189Z,99523.69
2023-02-19T01:13:26.046Z,99536.72
2023-02-19T01:15:52.626Z,99537.47
2023-02-19T01:18:20.265Z,99526.28
2023-02-19T01:20:47.033Z,99534.16
2023-02-19T01:23:14.325Z,99522.25
2023-02-19T01:25:43.659Z,99525.34
2023-02-19T01:28:11.048Z,99519.63
2023-02-19T01:30:39.257Z,99518.78
2023-02-19T01:33:07.355Z,99513.91
2023-02-19T01:35:34.344Z,99506.75
2023-02-19T01:38:00.862Z,99502.75
2023-02-19T01:40:27.491Z,99520.84
2023-02-19T01:42:54.082Z,99515.75
2023-02-19T01:45:32.449Z,99500.72
2023-02-19T01:48:06.517Z,99498.72
2023-02-19T01:50:38.869Z,99505.78
2023-02-19T01:53:08.506Z,99501.78
2023-02-19T01:55:35.591Z,99489.97
2023-02-19T01:58:03.455Z,99503.31
2023-02-19T02:00:30.778Z,99494.16
2023-02-19T02:02:58.575Z,99501.19
2023-02-19T02:05:34.246Z,99487.78
2023-02-19T02:08:21.587Z,99496.06
2023-02-19T02:10:50.074Z,99502.28
2023-02-19T02:13:16.772Z,99483.28
2023-02-19T02:16:23.981Z,99473.66
2023-02-19T02:18:59.832Z,99481.44
2023-02-19T02:21:49.033Z,99481.44
2023-02-19T02:24:18.289Z,99462.84
2023-02-19T02:26:57.909Z,99466.38
2023-02-19T02:29:33.200Z,99466.66
2023-02-19T02:32:08.532Z,99453.53
2023-02-19T02:35:01.154Z,99451.88
2023-02-19T02:37:33.519Z,99454.41
2023-02-19T02:40:00.752Z,99469.34
2023-02-19T02:42:27.281Z,99456.22
2023-02-19T02:45:17.684Z,99454.63
2023-02-19T02:47:57.247Z,99452.16
2023-02-19T02:50:34.597Z,99441.72
2023-02-19T02:53:24.485Z,99432.31
2023-02-19T02:55:53.501Z,99442.69
2023-02-19T02:58:23.924Z,99439.34
2023-02-19T03:01:15.806Z,99450.59
2023-02-19T03:03:44.925Z,99448.41
2023-02-19T03:06:15.406Z,99448.78
2023-02-19T03:08:53.761Z,99453.06
2023-02-19T03:11:39.311Z,99438.81
2023-02-19T03:14:31.552Z,99434.41
2023-02-19T03:17:26.916Z,99448.41
2023-02-19T03:19:57.259Z,99444.22
2023-02-19T03:22:29.982Z,99444.38
2023-02-19T03:25:30.769Z,99447.53
2023-02-19T03:28:00.536Z,99431.81
2023-02-19T03:30:34.034Z,99435.34
2023-02-19T03:33:08.376Z,99436.53
2023-02-19T03:35:44.438Z,99448.69
2023-02-19T03:38:18.669Z,99443.13
2023-02-19T03:40:56.236Z,99428.13
2023-02-19T03:43:42.107Z,99421.91
2023-02-19T03:46:27.762Z,99433.78
2023-02-19T03:49:05.856Z,99428.31
2023-02-19T03:51:39.162Z,99414.50
2023-02-19T03:54:38.104Z,99416.69
2023-02-19T03:57:17.966Z,99409.03
2023-02-19T04:00:05.539Z,99409.41
2023-02-19T04:02:44.018Z,99418.13
2023-02-19T04:05:17.101Z,99415.34
2023-02-19T04:07:48.880Z,99409.41
2023-02-19T04:10:17.793Z,99413.75
2023-02-19T04:12:50.318Z,99415.34
2023-02-19T04:15:22.898Z,99412.59
2023-02-19T04:17:59.718Z,99412.97
2023-02-19T04:20:32.073Z,99405.06
2023-02-19T04:22:58.973Z,99411.38
2023-02-19T04:25:27.789Z,99408.19
2023-02-19T04:27:54.523Z,99408.09
2023-02-19T04:30:21.325Z,99412.03
2023-02-19T04:32:48.151Z,99415.66
2023-02-19T04:35:14.692Z,99402.72
2023-02-19T04:37:41.205Z,99395.00
2023-02-19T04:40:08.424Z,99386.72
2023-02-19T04:42:34.912Z,99396.59
2023-02-19T04:45:01.420Z,99390.72
2023-02-19T04:47:27.976Z,99395.88
2023-02-19T04:49:54.515Z,99397.97
2023-02-19T04:52:21.036Z,99399.19
2023-02-19T04:54:47.575Z,99394.50
2023-02-19T04:57:14.155Z,99390.22
2023-02-19T04:59:40.748Z,99389.09
2023-02-19T05:02:07.293Z,99378.94
2023-02-19T05:04:34.003Z,99390.84
2023-02-19T05:07:00.630Z,99386.19
2023-02-19T05:09:27.131Z,99389.38
2023-02-19T05:11:53.732Z,99378.34
2023-02-19T05:14:20.291Z,99381.09
2023-02-19T05:16:46.891Z,99366.16
2023-02-19T05:19:13.910Z,99360.34
2023-02-19T05:21:40.912Z,99358.81
2023-02-19T05:24:07.910Z,99360.47
2023-02-19T05:26:35.066Z,99369.97
2023-02-19T05:29:01.966Z,99364.50
2023-02-19T05:31:28.965Z,99367.72
2023-02-19T05:33:56.854Z,99354.47
2023-02-19T05:36:23.973Z,99355.06
2023-02-19T05:38:56.590Z,99350.66
2023-02-19T05:41:33.339Z,99341.88
2023-02-19T05:44:00.148Z,99335.22
2023-02-19T05:46:31.926Z,99339.22
2023-02-19T05:48:58.521Z,99326.97
2023-02-19T05:51:27.012Z,99326.88
2023-02-19T05:53:53.731Z,99321.66
2023-02-19T05:56:26.501Z,99313.63
2023-02-19T05:58:54.292Z,99321.81
2023-02-19T06:01:23.357Z,99325.00
2023-02-19T06:03:49.986Z,99321.56
2023-02-19T06:06:18.459Z,99331.59
2023-02-19T06:08:44.967Z,99332.19
2023-02-19T06:11:11.951Z,99340.06
2023-02-19T06:13:38.659Z,99332.47
2023-02-19T06:16:06.663Z,99338.09
2023-02-19T06:18:33.559Z,99350.28
2023-02-19T06:21:08.538Z,99348.47
2023-02-19T06:23:35.364Z,99356.22
2023-02-19T06:26:23.249Z,99346.63
2023-02-19T06:28:52.124Z,99356.75
2023-02-19T06:31:20.688Z,99353.19
2023-02-19T06:33:47.504Z,99348.25
2023-02-19T06:36:17.278Z,99339.75
2023-02-19T06:38:44.228Z,99342.59
2023-02-19T06:41:12.301Z,99347.09
2023-02-19T06:43:39.020Z,99350.28
2023-02-19T06:46:07.625Z,99345.50
2023-02-19T06:48:34.833Z,99346.97
2023-02-19T06:51:01.699Z,99347.25
2023-02-19T06:53:28.391Z,99348.41
2023-02-19T06:56:04.404Z,99342.09
2023-02-19T06:58:32.216Z,99341.78
2023-02-19T07:00:59.172Z,99344.63
2023-02-19T07:03:26.550Z,99336.00
2023-02-19T07:05:53.726Z,99330.59
2023-02-19T07:08:20.660Z,99351.84
2023-02-19T07:10:57.649Z,99349.09
2023-02-19T07:13:26.773Z,99351.38
2023-02-19T07:15:59.740Z,99357.22
2023-02-19T07:18:26.488Z,99365.06
2023-02-19T07:20:53.031Z,99368.66
2023-02-19T07:23:19.559Z,99365.56
2023-02-19T07:25:46.112Z,99361.28
2023-02-19T07:28:12.673Z,99363.47
2023-02-19T07:30:39.183Z,99364.84
2023-02-19T07:33:05.731Z,99367.22
2023-02-19T07:35:32.233Z,99364.13
2023-02-19T07:37:58.744Z,99368.84
2023-02-19T07:40:25.253Z,99372.25
2023-02-19T07:42:51.736Z,99364.00
2023-02-19T07:45:18.294Z,99365.06
2023-02-19T07:47:44.912Z,99374.09
2023-02-19T07:50:13.755Z,99363.00
2023-02-19T07:52:40.567Z,99368.69
2023-02-19T07:55:07.172Z,99378.59
2023-02-19T07:57:33.684Z,99365.16
2023-02-19T08:00:00.527Z,99372.91
2023-02-19T08:02:45.491Z,99367.91
2023-02-19T08:05:13.525Z,99377.06
2023-02-19T08:07:40.624Z,99371.63
2023-02-19T08:10:26.236Z,99380.38
2023-02-19T08:13:16.173Z,99384.38
2023-02-19T08:15:43.156Z,99389.66
2023-02-19T08:18:10.906Z,99383.47
2023-02-19T08:20:37.858Z,99394.19
2023-02-19T08:23:04.497Z,99389.88
2023-02-19T08:25:31.089Z,99391.44
2023-02-19T08:27:57.625Z,99399.81
2023-02-19T08:30:24.552Z,99390.78
2023-02-19T08:32:51.197Z,99407.44
2023-02-19T08:35:17.784Z,99423.69
2023-02-19T08:37:44.623Z,99401.50
2023-02-19T08:40:11.996Z,99402.25
2023-02-19T08:42:38.648Z,99393.63
2023-02-19T08:45:05.535Z,99412.50
2023-02-19T08:47:34.344Z,99396.72
2023-02-19T08:50:00.949Z,99401.97
2023-02-19T08:52:27.501Z,99394.22
2023-02-19T08:54:54.080Z,99399.44
2023-02-19T08:57:20.943Z,99399.84
2023-02-19T08:59:47.450Z,99404.91
2023-02-19T09:02:13.953Z,99401.59
2023-02-19T09:04:40.455Z,99400.72
2023-02-19T09:07:09.416Z,99421.16
2023-02-19T09:09:40.150Z,99409.22
2023-02-19T09:12:08.605Z,99406.78
2023-02-19T09:14:36.133Z,99408.34
2023-02-19T09:17:05.089Z,99411.84
2023-02-19T09:19:32.416Z,99407.47
2023-02-19T09:21:59.281Z,99411.00
2023-02-19T09:24:25.909Z,99411.38
2023-02-19T09:26:53.980Z,99409.00
2023-02-19T09:29:25.340Z,99413.78
2023-02-19T09:31:57.064Z,99398.78
2023-02-19T09:34:24.621Z,99405.25
2023-02-19T09:36:51.656Z,99384.84
2023-02-19T09:39:18.669Z,99379.78
2023-02-19T09:41:49.215Z,99374.72
2023-02-19T09:44:25.893Z,99375.63
2023-02-19T09:46:53.939Z,99361.22
2023-02-19T09:49:32.084Z,99366.72
2023-02-19T09:52:07.643Z,99381.28
2023-02-19T09:54:37.317Z,99385.28
2023-02-19T09:57:04.775Z,99376.91
2023-02-19T09:59:44.161Z,99387.63
2023-02-19T10:02:15.186Z,99381.84
2023-02-19T10:04:43.990Z,99383.34
2023-02-19T10:07:14.249Z,99408.59
2023-02-19T10:09:40.944Z,99394.00
2023-02-19T10:12:25.430Z,99395.84
2023-02-19T10:15:15.331Z,99394.66
2023-02-19T10:17:41.898Z,99388.69
2023-02-19T10:20:15.455Z,99395.28
2023-02-19T10:22:42.692Z,99409.78
2023-02-19T10:25:15.712Z,99407.78
2023-02-19T10:27:43.793Z,99389.09
2023-02-19T10:30:30.363Z,99395.19
2023-02-19T10:33:16.285Z,99383.97
2023-02-19T10:36:21.703Z,99370.16
2023-02-19T10:38:48.442Z,99405.25
2023-02-19T10:41:18.006Z,99401.59
2023-02-19T10:43:52.667Z,99396.16
2023-02-19T10:46:21.319Z,99405.47
2023-02-19T10:48:55.141Z,99391.88
2023-02-19T10:51:30.631Z,99386.16
2023-02-19T10:54:20.899Z,99379.31
2023-02-19T10:56:47.529Z,99377.34
2023-02-19T10:59:26.264Z,99353.19
2023-02-19T11:01:58.597Z,99347.00
2023-02-19T11:04:27.555Z,99332.75
2023-02-19T11:06:54.839Z,99346.25
2023-02-19T11:09:37.647Z,99347.34
2023-02-19T11:12:05.809Z,99362.28
2023-02-19T11:14:34.361Z,99372.78
2023-02-19T11:17:04.887Z,99386.78
2023-02-19T11:19:38.073Z,99390.50
2023-02-19T11:22:21.073Z,99385.59
2023-02-19T11:24:55.438Z,99367.63
2023-02-19T11:27:24.957Z,99381.22
2023-02-19T11:29:51.575Z,99393.78
2023-02-19T11:32:29.826Z,99416.47
2023-02-19T11:35:17.768Z,99360.25
2023-02-19T11:38:02.213Z,99346.63
2023-02-19T11:40:53.184Z,99342.66
2023-02-19T11:43:31.913Z,99354.19
2023-02-19T11:46:32.817Z,99380.91
2023-02-19T11:49:34.001Z,99348.19
2023-02-19T11:52:27.469Z,99360.13
2023-02-19T11:55:00.783Z,99349.81
2023-02-19T11:57:50.542Z,99351.94
2023-02-19T12:00:31.024Z,99339.66
2023-02-19T12:03:10.052Z,99342.03
2023-02-19T12:06:03.334Z,99330.88
2023-02-19T12:08:41.889Z,99329.03
2023-02-19T12:11:29.200Z,99323.91
2023-02-19T12:14:20.617Z,99336.59
2023-02-19T12:16:56.415Z,99333.00
2023-02-19T12:19:58.511Z,99354.09
2023-02-19T12:22:33.501Z,99339.09
2023-02-19T12:25:06.065Z,99336.78
2023-02-19T12:28:07.931Z,99342.69
2023-02-19T12:30:53.496Z,99357.38
2023-02-19T12:33:57.977Z,99342.34
2023-02-19T12:36:37.344Z,99380.78
2023-02-19T12:39:12.621Z,99345.44
2023-02-19T12:42:18.213Z,99368.88
2023-02-19T12:45:10.442Z,99377.19
2023-02-19T12:47:42.149Z,99349.44
2023-02-19T12:50:21.251Z,99363.31
2023-02-19T12:52:57.183Z,99330.00
2023-02-19T12:55:41.465Z,99347.78
2023-02-19T12:58:14.646Z,99314.53
2023-02-19T13:00:50.547Z,99331.94
2023-02-19T13:03:31.808Z,99277.63
2023-02-19T13:06:03.677Z,99315.59
2023-02-19T13:09:06.298Z,99299.41
2023-02-19T13:12:03.236Z,99339.06
2023-02-19T13:15:02.687Z,99337.50
2023-02-19T13:17:41.343Z,99318.53
2023-02-19T13:20:27.442Z,99342.19
2023-02-19T13:23:15.814Z,99324.81
2023-02-19T13:26:02.345Z,99340.31
2023-02-19T13:28:41.268Z,99328.78
2023-02-19T13:31:56.613Z,99328.66
2023-02-19T13:34:43.035Z,99335.88
2023-02-19T13:37:11.459Z,99347.72
2023-02-19T13:39:48.646Z,99341.44
2023-02-19T13:42:29.009Z,99354.97
2023-02-19T13:44:57.996Z,99353.34
2023-02-19T13:47:59.557Z,99358.09
2023-02-19T13:50:32.554Z,99336.78
2023-02-19T13:53:01.021Z,99374.41
2023-02-19T13:55:44.899Z,99360.13
2023-02-19T13:58:30.216Z,99367.59
2023-02-19T14:00:56.759Z,99356.84
2023-02-19T14:03:52.054Z,99368.38
2023-02-19T14:06:18.997Z,99361.28
2023-02-19T14:08:50.305Z,99350.59
2023-02-19T14:11:17.621Z,99360.50
2023-02-19T14:13:50.748Z,99342.22
2023-02-19T14:17:04.507Z,99419.00
2023-02-19T14:19:43.190Z,99373.88
2023-02-19T14:22:53.104Z,99384.16
2023-02-19T14:25:34.500Z,99367.19
2023-02-19T14:28:03.028Z,99394.97
2023-02-19T14:30:32.627Z,99380.69
2023-02-19T14:33:10.129Z,99389.81
2023-02-19T14:35:44.674Z,99391.78
2023-02-19T14:38:22.557Z,99405.53
2023-02-19T14:40:50.621Z,99419.03
2023-02-19T14:43:19.699Z,99401.19
2023-02-19T14:45:52.071Z,99418.94
2023-02-19T14:48:24.370Z,99423.66
2023-02-19T14:50:55.904Z,99466.47
2023-02-19T14:53:25.295Z,99447.75
2023-02-19T14:55:53.229Z,99432.19
2023-02-19T14:58:28.345Z,99463.81
2023-02-19T15:00:54.912Z,99457.06
2023-02-19T15:03:39.565Z,99455.81
2023-02-19T15:06:11.518Z,99460.41
2023-02-19T15:08:49.745Z,99467.00
2023-02-19T15:11:20.798Z,99468.84
2023-02-19T15:14:08.397Z,99490.44
2023-02-19T15:16:36.351Z,99477.63
2023-02-19T15:19:08.564Z,99488.16
2023-02-19T15:21:38.880Z,99502.09
2023-02-19T15:24:07.086Z,99498.56
2023-02-19T15:26:48.374Z,99512.09
2023-02-19T15:29:18.452Z,99516.38
2023-02-19T15:31:57.272Z,99518.56
2023-02-19T15:34:24.023Z,99509.69
2023-02-19T15:36:53.311Z,99513.41
2023-02-19T15:42:05.025Z,99501.03
2023-02-19T15:44:41.534Z,99519.94
2023-02-19T15:49:54.552Z,99502.63
2023-02-19T15:52:59.934Z,99510.38
2023-02-19T15:55:34.603Z,99509.09
2023-02-19T15:58:23.497Z,99516.94
2023-02-19T16:00:54.908Z,99525.53
2023-02-19T16:03:24.378Z,99521.47
2023-02-19T16:06:11.487Z,99532.72
2023-02-19T16:08:39.753Z,99539.63
2023-02-19T16:11:24.453Z,99542.69
2023-02-19T16:13:51.865Z,99538.19
2023-02-19T16:16:34.936Z,99563.00
2023-02-19T16:19:01.793Z,99564.16
2023-02-19T16:21:28.680Z,99564.44
2023-02-19T16:24:17.061Z,99567.50
2023-02-19T16:26:45.357Z,99582.88
2023-02-19T16:29:30.373Z,99593.50
2023-02-19T16:31:59.724Z,99602.47
2023-02-19T16:34:42.964Z,99613.50
2023-02-19T16:37:38.916Z,99624.09
2023-02-19T16:40:08.584Z,99616.97
2023-02-19T16:42:36.656Z,99637.28
2023-02-19T16:45:03.370Z,99644.53
2023-02-19T16:47:32.299Z,99663.94
2023-02-19T16:50:04.201Z,99669.44
2023-02-19T16:52:31.377Z,99672.09
2023-02-19T16:54:57.965Z,99690.28
2023-02-19T16:57:24.714Z,99686.56
2023-02-19T16:59:51.392Z,99708.13
2023-02-19T17:02:21.274Z,99669.09
2023-02-19T17:04:49.005Z,99720.16
2023-02-19T17:07:17.711Z,99731.13
2023-02-19T17:09:44.438Z,99725.91
2023-02-19T17:12:12.974Z,99730.59
2023-02-19T17:14:39.561Z,99741.50
2023-02-19T17:17:06.617Z,99724.44
2023-02-19T17:19:33.330Z,99733.47
2023-02-19T17:21:59.977Z,99725.09
2023-02-19T17:24:26.656Z,99719.28
2023-02-19T17:26:53.208Z,99723.44
2023-02-19T17:29:20.212Z,99722.31
2023-02-19T17:31:46.927Z,99726.53
2023-02-19T17:34:13.567Z,99725.72
2023-02-19T17:36:42.851Z,99731.84
2023-02-19T17:39:15.769Z,99738.63
2023-02-19T17:41:42.554Z,99750.84
2023-02-19T17:44:09.432Z,99748.09
2023-02-19T17:46:36.515Z,99753.19
2023-02-19T17:49:03.613Z,99774.47
2023-02-19T17:51:30.183Z,99796.38
2023-02-19T17:53:56.956Z,99786.00
2023-02-19T17:56:26.210Z,99802.78
2023-02-19T17:58:55.015Z,99833.13
2023-02-19T18:01:21.890Z,99826.91
2023-02-19T18:03:49.913Z,99837.09
2023-02-19T18:06:16.765Z,99851.34
2023-02-19T18:08:51.306Z,99862.03
2023-02-19T18:11:19.453Z,99874.31
2023-02-19T18:13:46.129Z,99886.72
2023-02-19T18:16:15.620Z,99887.03
2023-02-19T18:18:42.404Z,99880.91
2023-02-19T18:21:10.335Z,99874.84
2023-02-19T18:23:37.514Z,99870.34
2023-02-19T18:26:07.660Z,99884.03
2023-02-19T18:28:35.600Z,99893.19
2023-02-19T18:31:02.655Z,99881.72
2023-02-19T18:33:29.267Z,99879.28
2023-02-19T18:35:55.821Z,99879.78
2023-02-19T18:38:22.405Z,99881.72
2023-02-19T18:40:49.007Z,99887.66
2023-02-19T18:43:15.573Z,99874.25
2023-02-19T18:45:43.422Z,99881.31
2023-02-19T18:48:10.114Z,99893.25
2023-02-19T18:50:36.694Z,99902.56
2023-02-19T18:53:03.410Z,99910.16
2023-02-19T18:55:30.013Z,99901.28
2023-02-19T18:57:56.988Z,99911.91
2023-02-19T19:00:26.497Z,99907.41
2023-02-19T19:02:58.116Z,99909.81
2023-02-19T19:05:24.747Z,99913.22
2023-02-19T19:07:55.727Z,99907.59
2023-02-19T19:10:23.397Z,99911.25
2023-02-19T19:12:50.700Z,99921.56
2023-02-19T19:15:18.905Z,99917.72
2023-02-19T19:17:46.384Z,99924.66
2023-02-19T19:20:13.761Z,99924.66
2023-02-19T19:22:40.487Z,99924.78
2023-02-19T19:25:08.661Z,99932.06
2023-02-19T19:27:35.384Z,99921.56
2023-02-19T19:30:02.559Z,99917.06
2023-02-19T19:32:29.245Z,99918.84
2023-02-19T19:34:56.013Z,99917.25
2023-02-19T19:37:22.577Z,99920.63
2023-02-19T19:39:49.196Z,99923.09
2023-02-19T19:42:15.922Z,99918.09
2023-02-19T19:44:45.300Z,99919.56
2023-02-19T19:47:11.826Z,99929.38
2023-02-19T19:49:38.567Z,99934.41
2023-02-19T19:52:05.270Z,99935.81
2023-02-19T19:54:31.827Z,99943.22
2023-02-19T19:56:58.370Z,99957.06
2023-02-19T20:04:55.624Z,99953.34
2023-02-19T20:07:22.150Z,99968.50
2023-02-19T20:09:49.953Z,99972.69
2023-02-19T20:12:17.528Z,99970.13
2023-02-19T20:14:45.974Z,99981.56
2023-02-19T20:17:13.379Z,99966.06
2023-02-19T20:19:40.014Z,99959.00
2023-02-19T20:22:06.704Z,99970.91
2023-02-19T20:24:33.225Z,99971.06
2023-02-19T20:27:01.996Z,99968.63
2023-02-19T20:29:31.183Z,99964.13
2023-02-19T20:31:59.921Z,99964.78
2023-02-19T20:34:27.424Z,99967.97
2023-02-19T20:36:54.344Z,99977.47
2023-02-19T20:39:22.205Z,99980.56
2023-02-19T20:41:51.798Z,99968.78
2023-02-19T20:44:19.366Z,99967.34
2023-02-19T20:46:48.608Z,99973.81
2023-02-19T20:49:17.088Z,99981.56
2023-02-19T20:51:48.994Z,99983.19
2023-02-19T20:54:17.880Z,99989.31
2023-02-19T20:56:49.647Z,99985.13
2023-02-19T20:59:18.840Z,99995.94
2023-02-19T21:01:45.938Z,99990.28
2023-02-19T21:04:13.912Z,99994.81
2023-02-19T21:06:42.022Z,99988.38
2023-02-19T21:09:08.673Z,99995.47
2023-02-19T21:11:35.278Z,99991.75
2023-02-19T21:14:02.006Z,100005.09
2023-02-19T21:16:30.728Z,100003.66
2023-02-19T21:18:58.228Z,100012.38
2023-02-19T21:21:26.253Z,100014.13
2023-02-19T21:23:54.664Z,100016.41
2023-02-19T21:26:21.854Z,100021.03
2023-02-19T21:31:25.441Z,100031.22
2023-02-19T21:33:52.089Z,100031.22
2023-02-19T21:36:18.868Z,100043.44
2023-02-19T21:38:45.438Z,100048.00
2023-02-19T21:41:11.974Z,100052.03
2023-02-19T21:43:38.543Z,100058.41
2023-02-19T21:46:05.238Z,100045.38
2023-02-19T21:48:31.795Z,100041.44
2023-02-19T21:50:58.312Z,100053.31
2023-02-19T21:53:24.819Z,100042.50
2023-02-19T21:55:58.239Z,100044.69
2023-02-19T21:58:25.590Z,100042.22
2023-02-19T22:00:54.895Z,100033.81
2023-02-19T22:03:21.557Z,100038.69
2023-02-19T22:05:48.114Z,100036.47
2023-02-19T22:08:15.963Z,100045.84
2023-02-19T22:10:42.593Z,100037.22
2023-02-19T22:13:10.474Z,100046.13
2023-02-19T22:15:37.300Z,100049.59
2023-02-19T22:23:27.462Z,100050.31
2023-02-19T22:25:54.018Z,100044.19
2023-02-19T22:28:20.537Z,100041.75
2023-02-19T22:30:47.171Z,100043.88
2023-02-19T22:33:13.681Z,100048.22
2023-02-19T22:35:40.315Z,100054.88
2023-02-19T22:38:07.013Z,100055.09
2023-02-19T22:40:33.531Z,100051.81
2023-02-19T22:43:00.059Z,100055.66
2023-02-19T22:45:26.609Z,100060.94
2023-02-19T22:47:56.432Z,100069.53
2023-02-19T22:50:23.337Z,100066.63
2023-02-19T22:52:50.412Z,100064.69
2023-02-19T22:55:17.239Z,100080.97
2023-02-19T22:57:43.748Z,100069.88
2023-02-19T23:00:17.773Z,100064.00
2023-02-19T23:02:46.717Z,100058.97
2023-02-19T23:05:13.237Z,100071.72
2023-02-19T23:07:43.215Z,100077.78
2023-02-19T23:10:10.840Z,100078.19
2023-02-19T23:12:38.143Z,100076.88
2023-02-19T23:15:07.356Z,100080.50
2023-02-19T23:17:33.855Z,100074.84
2023-02-19T23:20:01.542Z,100081.41
2023-02-19T23:22:28.519Z,100074.75
2023-02-19T23:24:55.204Z,100074.75
2023-02-19T23:27:24.154Z,100074.25
2023-02-19T23:29:50.714Z,100083.22
2023-02-19T23:32:20.850Z,100092.72
2023-02-19T23:34:48.066Z,100100.97
2023-02-19T23:37:15.396Z,100104.31
2023-02-19T23:39:42.037Z,100107.34
2023-02-19T23:42:15.144Z,100095.91
2023-02-19T23:44:41.713Z,100097.63
2023-02-19T23:47:08.334Z,100108.31
2023-02-19T23:49:34.880Z,100107.22
2023-02-19T23:52:01.423Z,100118.13
2023-02-19T23:54:27.948Z,100121.44
2023-02-19T23:56:56.177Z,100121.94
2023-02-19T23:59:22.868Z,100130.09
